createdAt,value
2019-02-05T00:02:25.867Z,96.50
2019-02-05T00:05:28.565Z,96.60
2019-02-05T00:08:31.295Z,96.60
2019-02-05T00:11:34.018Z,96.70
2019-02-05T00:14:36.766Z,96.60
2019-02-05T00:17:39.444Z,96.60
2019-02-05T00:20:42.360Z,96.60
2019-02-05T00:23:45.087Z,96.60
2019-02-05T00:26:47.806Z,96.50
2019-02-05T00:29:51.027Z,96.60
2019-02-05T00:32:53.791Z,96.60
2019-02-05T00:35:56.547Z,96.50
2019-02-05T00:38:59.348Z,96.60
2019-02-05T00:42:02.123Z,96.90
2019-02-05T00:45:06.365Z,96.50
2019-02-05T00:48:09.998Z,96.50
2019-02-05T00:51:12.750Z,96.40
2019-02-05T00:54:15.440Z,96.50
2019-02-05T00:57:18.178Z,96.50
2019-02-05T01:00:28.565Z,96.40
2019-02-05T01:03:32.653Z,96.70
2019-02-05T01:06:35.627Z,96.40
2019-02-05T01:09:39.156Z,96.30
2019-02-05T01:12:41.990Z,96.30
2019-02-05T01:15:45.215Z,96.30
2019-02-05T01:18:48.014Z,96.30
2019-02-05T01:21:50.711Z,96.30
2019-02-05T01:24:53.725Z,96.30
2019-02-05T01:27:56.392Z,96.20
2019-02-05T01:30:59.063Z,96.30
2019-02-05T01:34:01.795Z,96.30
2019-02-05T01:37:04.503Z,96.30
2019-02-05T01:40:09.567Z,96.40
2019-02-05T01:43:13.377Z,96.50
2019-02-05T01:46:16.682Z,96.50
2019-02-05T01:49:20.180Z,96.60
2019-02-05T01:52:25.909Z,96.60
2019-02-05T01:55:28.768Z,96.70
2019-02-05T01:58:37.534Z,96.80
2019-02-05T02:01:41.033Z,97.10
2019-02-05T02:04:46.333Z,96.90
2019-02-05T02:07:49.257Z,97.00
2019-02-05T02:10:53.117Z,97.00
2019-02-05T02:14:05.568Z,97.10
2019-02-05T02:17:09.675Z,97.10
2019-02-05T02:20:15.203Z,97.10
2019-02-05T02:23:19.137Z,97.20
2019-02-05T02:26:21.882Z,97.10
2019-02-05T02:29:26.994Z,97.20
2019-02-05T02:32:30.280Z,97.30
2019-02-05T02:35:33.157Z,97.20
2019-02-05T02:38:36.127Z,97.20
2019-02-05T02:41:42.725Z,97.10
2019-02-05T02:44:46.231Z,97.10
2019-02-05T02:47:52.299Z,97.20
2019-02-05T02:50:56.906Z,97.20
2019-02-05T02:54:04.650Z,97.20
2019-02-05T02:57:07.466Z,97.20
2019-02-05T03:00:16.165Z,97.20
2019-02-05T03:03:19.112Z,97.20
2019-02-05T03:06:25.174Z,97.30
2019-02-05T03:09:28.323Z,97.20
2019-02-05T03:12:36.318Z,97.20
2019-02-05T03:15:39.563Z,97.60
2019-02-05T03:18:42.398Z,97.30
2019-02-05T03:21:45.167Z,97.20
2019-02-05T03:24:51.504Z,97.10
2019-02-05T03:27:54.869Z,97.40
2019-02-05T03:30:57.585Z,97.30
2019-02-05T03:34:04.092Z,97.30
2019-02-05T03:37:06.719Z,97.60
2019-02-05T03:40:20.503Z,97.30
2019-02-05T03:43:23.178Z,97.40
2019-02-05T03:46:26.438Z,97.30
2019-02-05T03:49:29.608Z,97.40
2019-02-05T03:52:41.132Z,97.40
2019-02-05T03:56:02.153Z,97.60
2019-02-05T03:59:31.682Z,97.50
2019-02-05T04:03:25.033Z,97.50
2019-02-05T04:06:56.206Z,97.40
2019-02-05T04:10:49.819Z,97.40
2019-02-05T04:14:36.377Z,97.50
2019-02-05T04:18:09.762Z,97.60
2019-02-05T04:21:43.395Z,97.70
2019-02-05T04:25:16.484Z,97.50
2019-02-05T04:28:56.408Z,97.60
2019-02-05T04:32:27.834Z,97.60
2019-02-05T04:36:11.708Z,97.70
2019-02-05T04:39:42.016Z,97.80
2019-02-05T04:43:12.781Z,97.80
2019-02-05T04:46:42.343Z,97.90
2019-02-05T04:50:16.149Z,97.80
2019-02-05T04:54:37.976Z,97.90
2019-02-05T04:58:05.453Z,97.70
2019-02-05T05:01:38.912Z,97.80
2019-02-05T05:05:35.744Z,97.80
2019-02-05T05:09:05.401Z,97.70
2019-02-05T05:12:08.981Z,97.60
2019-02-05T05:15:11.914Z,97.50
2019-02-05T05:18:15.601Z,97.50
2019-02-05T05:21:19.795Z,97.50
2019-02-05T05:24:22.627Z,97.50
2019-02-05T05:27:25.461Z,97.50
2019-02-05T05:30:31.741Z,97.40
2019-02-05T05:33:34.519Z,97.50
2019-02-05T05:36:50.072Z,97.50
2019-02-05T05:39:53.791Z,97.40
2019-02-05T05:42:57.087Z,97.40
2019-02-05T05:45:59.806Z,97.40
2019-02-05T05:49:02.811Z,97.40
2019-02-05T05:52:08.353Z,97.40
2019-02-05T05:55:11.278Z,97.40
2019-02-05T05:58:22.408Z,97.40
2019-02-05T06:01:19.786Z,97.50
2019-02-05T06:04:28.594Z,97.50
2019-02-05T06:07:31.926Z,97.40
2019-02-05T06:10:40.013Z,97.60
2019-02-05T06:13:43.142Z,97.70
2019-02-05T06:16:45.936Z,97.60
2019-02-05T06:19:49.250Z,97.50
2019-02-05T06:22:52.125Z,97.40
2019-02-05T06:25:54.952Z,97.50
2019-02-05T06:28:57.662Z,97.00
2019-02-05T06:32:00.544Z,97.00
2019-02-05T06:35:04.060Z,96.50
2019-02-05T06:38:06.786Z,96.30
2019-02-05T06:41:09.462Z,96.50
2019-02-05T06:44:12.458Z,96.60
2019-02-05T06:47:15.191Z,96.80
2019-02-05T06:50:17.947Z,96.60
2019-02-05T06:53:21.219Z,96.60
2019-02-05T06:56:24.097Z,96.80
2019-02-05T06:59:26.787Z,96.80
2019-02-05T07:02:29.609Z,96.80
2019-02-05T07:05:32.423Z,96.70
2019-02-05T07:08:35.361Z,96.70
2019-02-05T07:11:41.785Z,96.80
2019-02-05T07:14:44.668Z,96.90
2019-02-05T07:17:50.010Z,97.10
2019-02-05T07:20:52.181Z,97.20
2019-02-05T07:23:54.826Z,97.30
2019-02-05T07:26:57.847Z,97.40
2019-02-05T07:30:00.600Z,97.50
2019-02-05T07:33:03.593Z,97.50
2019-02-05T07:36:09.310Z,97.50
2019-02-05T07:39:12.199Z,97.50
2019-02-05T07:42:20.215Z,97.50
2019-02-05T07:45:26.150Z,97.50
2019-02-05T07:48:36.266Z,97.40
2019-02-05T07:51:41.623Z,97.40
2019-02-05T07:54:44.378Z,97.50
2019-02-05T07:57:48.276Z,97.40
2019-02-05T08:00:51.037Z,97.60
2019-02-05T08:03:53.734Z,97.30
2019-02-05T08:06:56.503Z,97.40
2019-02-05T08:09:59.492Z,97.30
2019-02-05T08:13:02.135Z,97.20
2019-02-05T08:16:05.089Z,97.10
2019-02-05T08:19:07.773Z,97.10
2019-02-05T08:22:10.475Z,97.00
2019-02-05T08:25:13.930Z,97.10
2019-02-05T08:28:20.295Z,97.20
2019-02-05T08:31:24.516Z,97.10
2019-02-05T08:34:27.721Z,97.10
2019-02-05T08:37:30.433Z,97.10
2019-02-05T08:40:33.196Z,97.20
2019-02-05T08:43:36.311Z,97.30
2019-02-05T08:46:39.081Z,97.30
2019-02-05T08:49:41.712Z,97.30
2019-02-05T08:52:44.501Z,97.30
2019-02-05T08:55:56.514Z,97.40
2019-02-05T08:58:59.820Z,97.50
2019-02-05T09:02:02.659Z,97.60
2019-02-05T09:05:05.563Z,97.60
2019-02-05T09:08:08.372Z,97.60
2019-02-05T09:11:11.200Z,97.50
2019-02-05T09:14:13.800Z,97.60
2019-02-05T09:17:16.960Z,97.60
2019-02-05T09:20:19.750Z,97.70
2019-02-05T09:23:22.647Z,97.50
2019-02-05T09:26:25.381Z,97.70
2019-02-05T09:29:33.365Z,97.70
2019-02-05T09:32:34.979Z,97.80
2019-02-05T09:35:37.362Z,97.80
2019-02-05T09:38:40.013Z,97.90
2019-02-05T09:41:42.800Z,97.70
2019-02-05T09:44:45.475Z,97.60
2019-02-05T09:47:48.214Z,97.60
2019-02-05T09:50:51.404Z,97.60
2019-02-05T09:53:54.357Z,97.70
2019-02-05T09:56:57.364Z,97.50
2019-02-05T10:00:00.761Z,97.60
2019-02-05T10:03:06.544Z,97.60
2019-02-05T10:06:09.773Z,97.70
2019-02-05T10:09:12.686Z,97.70
2019-02-05T10:12:15.484Z,97.60
2019-02-05T10:15:23.961Z,97.60
2019-02-05T10:18:27.017Z,97.60
2019-02-05T10:21:29.923Z,97.70
2019-02-05T10:24:33.018Z,97.60
2019-02-05T10:27:36.937Z,97.60
2019-02-05T10:30:41.706Z,97.60
2019-02-05T10:33:54.712Z,97.50
2019-02-05T10:36:49.469Z,97.40
2019-02-05T10:39:52.419Z,97.20
2019-02-05T10:42:55.418Z,97.10
2019-02-05T10:45:58.338Z,97.30
2019-02-05T10:49:03.329Z,97.30
2019-02-05T10:52:06.402Z,97.10
2019-02-05T10:55:11.444Z,97.20
2019-02-05T10:58:21.823Z,97.20
2019-02-05T11:01:25.501Z,97.30
2019-02-05T11:04:28.522Z,97.20
2019-02-05T11:07:31.678Z,96.80
2019-02-05T11:10:35.012Z,96.90
2019-02-05T11:13:38.034Z,97.00
2019-02-05T11:16:40.982Z,96.70
2019-02-05T11:19:44.192Z,96.70
2019-02-05T11:22:47.323Z,96.60
2019-02-05T11:25:50.454Z,96.70
2019-02-05T11:28:53.293Z,96.80
2019-02-05T11:31:56.510Z,96.70
2019-02-05T11:34:59.691Z,96.60
2019-02-05T11:38:03.613Z,96.50
2019-02-05T11:41:06.533Z,96.40
2019-02-05T11:44:10.824Z,96.30
2019-02-05T11:47:13.915Z,96.10
2019-02-05T11:50:17.574Z,96.50
2019-02-05T11:53:20.563Z,96.10
2019-02-05T11:56:23.559Z,96.10
2019-02-05T11:59:26.543Z,96.20
2019-02-05T12:02:29.630Z,96.30
2019-02-05T12:05:32.620Z,96.30
2019-02-05T12:08:35.554Z,96.60
2019-02-05T12:11:38.526Z,96.70
2019-02-05T12:14:41.637Z,96.50
2019-02-05T12:17:45.225Z,96.40
2019-02-05T12:20:48.253Z,96.20
2019-02-05T12:23:51.348Z,96.10
2019-02-05T12:26:54.246Z,96.20
2019-02-05T12:29:57.240Z,96.40
2019-02-05T12:33:01.889Z,96.10
2019-02-05T12:36:05.382Z,96.00
2019-02-05T12:39:19.231Z,96.00
2019-02-05T12:42:22.136Z,95.90
2019-02-05T12:45:27.051Z,96.10
2019-02-05T12:48:30.048Z,95.80
2019-02-05T12:51:33.011Z,95.80
2019-02-05T12:54:35.997Z,95.80
2019-02-05T12:57:39.189Z,95.90
2019-02-05T13:00:59.644Z,95.70
2019-02-05T13:03:59.809Z,95.70
2019-02-05T13:07:03.287Z,95.50
2019-02-05T13:10:08.151Z,95.50
2019-02-05T13:13:12.793Z,95.60
2019-02-05T13:16:15.801Z,95.60
2019-02-05T13:19:18.660Z,95.60
2019-02-05T13:22:21.846Z,95.80
2019-02-05T13:25:26.197Z,95.90
2019-02-05T13:28:29.162Z,95.80
2019-02-05T13:31:33.135Z,96.00
2019-02-05T13:34:36.065Z,96.00
2019-02-05T13:37:39.080Z,96.10
2019-02-05T13:40:42.334Z,96.00
2019-02-05T13:43:45.389Z,95.80
2019-02-05T13:46:48.414Z,95.70
2019-02-05T13:49:51.790Z,95.50
2019-02-05T13:52:54.756Z,95.70
2019-02-05T13:55:57.806Z,95.70
2019-02-05T13:59:00.745Z,95.70
2019-02-05T14:02:05.458Z,95.40
2019-02-05T14:05:09.234Z,95.40
2019-02-05T14:08:12.295Z,95.50
2019-02-05T14:11:15.450Z,95.70
2019-02-05T14:14:18.367Z,95.50
2019-02-05T14:17:22.169Z,95.50
2019-02-05T14:20:25.270Z,95.50
2019-02-05T14:23:28.299Z,95.30
2019-02-05T14:26:31.407Z,95.10
2019-02-05T14:29:34.440Z,94.90
2019-02-05T14:32:37.313Z,95.00
2019-02-05T14:35:40.273Z,95.00
2019-02-05T14:38:43.382Z,94.80
2019-02-05T14:41:46.403Z,94.90
2019-02-05T14:44:49.419Z,95.00
2019-02-05T14:47:52.630Z,94.80
2019-02-05T14:50:56.058Z,95.10
2019-02-05T14:53:59.078Z,94.80
2019-02-05T14:57:02.940Z,94.70
2019-02-05T15:00:12.636Z,94.80
2019-02-05T15:03:15.695Z,94.90
2019-02-05T15:06:18.678Z,94.90
2019-02-05T15:09:21.810Z,94.70
2019-02-05T15:12:25.783Z,94.80
2019-02-05T15:15:29.009Z,94.80
2019-02-05T15:18:32.055Z,94.80
2019-02-05T15:21:35.068Z,94.80
2019-02-05T15:24:40.809Z,94.80
2019-02-05T15:27:42.743Z,94.80
2019-02-05T15:30:45.642Z,95.20
2019-02-05T15:34:00.362Z,95.30
2019-02-05T15:37:03.335Z,95.10
2019-02-05T15:40:07.699Z,95.20
2019-02-05T15:43:10.653Z,95.20
2019-02-05T15:46:13.805Z,94.90
2019-02-05T15:49:16.799Z,95.10
2019-02-05T15:52:19.802Z,95.10
2019-02-05T15:55:22.815Z,95.20
2019-02-05T15:58:25.901Z,95.00
2019-02-05T16:01:28.943Z,95.20
2019-02-05T16:04:32.000Z,95.20
2019-02-05T16:07:34.976Z,95.10
2019-02-05T16:10:37.989Z,95.10
2019-02-05T16:13:41.073Z,95.00
2019-02-05T16:16:44.065Z,95.20
2019-02-05T16:19:47.035Z,95.20
2019-02-05T16:22:50.447Z,95.10
2019-02-05T16:25:53.332Z,95.30
2019-02-05T16:28:56.503Z,95.20
2019-02-05T16:31:59.763Z,95.00
2019-02-05T16:35:03.714Z,94.80
2019-02-05T16:38:06.780Z,95.00
2019-02-05T16:41:10.322Z,94.90
2019-02-05T16:44:13.296Z,95.00
2019-02-05T16:47:16.315Z,95.00
2019-02-05T16:50:29.163Z,95.00
2019-02-05T16:53:32.056Z,94.80
2019-02-05T16:56:34.904Z,95.00
2019-02-05T16:59:37.847Z,94.50
2019-02-05T17:02:40.799Z,94.50
2019-02-05T17:05:44.083Z,94.40
2019-02-05T17:08:47.185Z,94.30
2019-02-05T17:11:50.210Z,94.40
2019-02-05T17:14:53.325Z,94.50
2019-02-05T17:17:56.766Z,94.50
2019-02-05T17:20:59.820Z,94.00
2019-02-05T17:24:02.911Z,94.10
2019-02-05T17:27:06.447Z,94.20
2019-02-05T17:30:12.803Z,94.30
2019-02-05T17:33:15.815Z,94.20
2019-02-05T17:36:20.496Z,94.20
2019-02-05T17:39:23.383Z,94.10
2019-02-05T17:42:26.497Z,94.10
2019-02-05T17:45:32.174Z,94.00
2019-02-05T17:48:35.157Z,94.00
2019-02-05T17:51:38.530Z,94.20
2019-02-05T17:54:42.058Z,94.30
2019-02-05T17:57:45.330Z,94.00
2019-02-05T18:00:50.622Z,93.90
2019-02-05T18:03:53.902Z,94.00
2019-02-05T18:06:56.935Z,93.90
2019-02-05T18:09:59.894Z,93.90
2019-02-05T18:13:03.437Z,93.80
2019-02-05T18:16:13.223Z,93.70
2019-02-05T18:19:16.301Z,94.10
2019-02-05T18:22:19.556Z,93.80
2019-02-05T18:25:22.828Z,93.80
2019-02-05T18:28:25.808Z,93.80
2019-02-05T18:31:29.391Z,93.70
2019-02-05T18:34:32.201Z,93.60
2019-02-05T18:37:35.165Z,93.60
2019-02-05T18:40:38.464Z,93.40
2019-02-05T18:43:41.447Z,93.40
2019-02-05T18:46:44.439Z,93.60
2019-02-05T18:49:47.503Z,93.40
2019-02-05T18:52:50.323Z,93.50
2019-02-05T18:55:53.260Z,93.50
2019-02-05T18:58:56.034Z,93.80
2019-02-05T19:01:58.933Z,93.60
2019-02-05T19:05:01.652Z,93.60
2019-02-05T19:08:06.971Z,93.60
2019-02-05T19:11:09.689Z,94.10
2019-02-05T19:14:12.523Z,93.70
2019-02-05T19:17:15.350Z,93.80
2019-02-05T19:20:20.283Z,93.80
2019-02-05T19:23:23.224Z,93.90
2019-02-05T19:26:31.849Z,94.00
2019-02-05T19:29:34.494Z,94.00
2019-02-05T19:32:37.293Z,94.10
2019-02-05T19:35:40.226Z,94.20
2019-02-05T19:38:42.929Z,94.30
2019-02-05T19:41:46.581Z,94.30
2019-02-05T19:44:59.594Z,94.40
2019-02-05T19:48:03.466Z,94.70
2019-02-05T19:51:06.212Z,94.80
2019-02-05T19:54:09.022Z,94.70
2019-02-05T19:57:20.449Z,94.70
2019-02-05T20:00:23.855Z,94.40
2019-02-05T20:07:15.069Z,94.10
2019-02-05T20:10:35.023Z,94.10
2019-02-05T20:14:11.660Z,94.20
2019-02-05T20:17:15.381Z,94.10
2019-02-05T20:20:39.441Z,94.10
2019-02-05T20:31:38.244Z,93.80
2019-02-05T20:34:41.297Z,94.00
2019-02-05T20:37:45.925Z,93.60
2019-02-05T20:40:57.990Z,93.60
2019-02-05T20:48:11.356Z,94.00
2019-02-05T21:03:04.538Z,94.30
2019-02-05T21:06:16.565Z,94.50
2019-02-05T21:09:20.965Z,94.50
2019-02-05T21:12:23.885Z,94.50
2019-02-05T21:15:27.284Z,94.50
2019-02-05T21:18:30.114Z,94.40
2019-02-05T21:21:39.366Z,94.40
2019-02-05T21:24:46.886Z,94.40
2019-02-05T21:28:14.655Z,94.40
2019-02-05T21:31:17.984Z,94.40
2019-02-05T21:34:21.017Z,94.50
2019-02-05T21:37:29.506Z,94.40
2019-02-05T21:40:39.900Z,94.30
2019-02-05T21:43:43.103Z,94.40
2019-02-05T21:46:46.037Z,94.50
2019-02-05T21:50:15.444Z,94.20
2019-02-05T21:53:23.398Z,94.10
2019-02-05T21:56:26.522Z,94.40
2019-02-05T21:59:30.341Z,94.40
2019-02-05T22:02:33.344Z,94.30
2019-02-05T22:05:37.566Z,94.10
2019-02-05T22:08:50.014Z,94.10
2019-02-05T22:11:53.215Z,94.00
2019-02-05T22:14:58.297Z,93.70
2019-02-05T22:18:01.867Z,93.90
2019-02-05T22:21:05.729Z,94.00
2019-02-05T22:24:08.759Z,93.80
2019-02-05T22:27:24.286Z,94.10
2019-02-05T22:30:32.685Z,94.30
2019-02-05T22:33:45.159Z,94.30
2019-02-05T22:36:48.247Z,94.10
2019-02-05T22:39:52.089Z,93.70
2019-02-05T22:42:56.111Z,93.90
2019-02-05T22:46:04.116Z,93.90
2019-02-05T22:49:09.732Z,93.90
2019-02-05T22:52:15.320Z,93.70
2019-02-05T22:55:19.316Z,93.50
2019-02-05T22:58:22.978Z,93.60
2019-02-05T23:01:47.069Z,93.60
2019-02-05T23:05:22.673Z,93.40
2019-02-05T23:08:26.482Z,93.20
2019-02-05T23:11:54.603Z,93.50
2019-02-05T23:15:01.493Z,93.30
2019-02-05T23:18:05.624Z,93.50
2019-02-05T23:21:33.673Z,93.40
2019-02-05T23:24:39.663Z,93.40
2019-02-05T23:27:46.113Z,93.60
2019-02-05T23:30:54.211Z,92.90
2019-02-05T23:33:58.007Z,93.00
2019-02-05T23:37:00.975Z,92.80
2019-02-05T23:40:08.306Z,92.90
2019-02-05T23:43:12.277Z,93.20
2019-02-05T23:46:15.121Z,92.50
2019-02-05T23:49:18.783Z,92.30
2019-02-05T23:52:22.091Z,92.30
2019-02-05T23:55:26.122Z,92.40
2019-02-05T23:58:29.734Z,92.50
